KSMO

Santa Monica Municipal Airport

Santa Monica, California, USA
METAR KSMO 151851Z 22007KT 10SM SCT027 SCT055 15/07 A3014 RMK AO2 SLP204 T01500072
Observed Flight Rules
Feb-15 @ 18:51 UTC (46 minutes ago) Visual Flight Rules
Wind Visibility Clouds
220° at 7 knots 10 miles
  • Scattered at 2,700' AGL
  • Scattered at 5,500' AGL
Temperatures Readings
Current 15°C / 59°F
Dewpoint 7°C / 45°F
Humidity 59%
Altimeter 30.14" Hg
Pressure 1020.4 hPa
Elevation 57
METAR KSMO 151851Z 22007KT 10SM SCT027 SCT055 15/07 A3014 RMK AO2 SLP204 T01500072
Observed Flight Rules
Feb-15 @ 18:51 UTC
(46 minutes ago)
VFR
Wind Visibility
220° at 7 knots 10 miles
Clouds
  • Scattered at 2,700' AGL
  • Scattered at 5,500' AGL
Temperature Dewpoint
15°C / 59°F 7°C / 45°F
Humidity Altimeter Pressure
59% 30.14" Hg 1020.4 hPa